| time (UTC) | temp F | wind direction | speed MPH | gust MPH | rain 1hr in | rain 24hr in | rain mn in | humidity % | barometer mb |
| 20260503223210 | 60 | 231 | 6.0 | 14.0 | 0.00 | 0.00 | 0.00 | 38 | 1011.6 |
| 20260503222210 | 61 | 260 | 11.0 | 15.0 | 0.00 | 0.00 | 0.00 | 37 | 1011.6 |
| 20260503221210 | 61 | 245 | 6.0 | 16.0 | 0.00 | 0.00 | 0.00 | 38 | 1011.6 |
| 20260503220703 | 61 | 260 | 8.0 | 21.0 | 0.00 | 0.00 | 0.00 | 37 | 1011.7 |
| 20260503215652 | 61 | 263 | 9.0 | 20.0 | 0.00 | 0.00 | 0.00 | 38 | 1011.7 |
| 20260503214211 | 61 | 242 | 10.0 | 19.0 | 0.00 | 0.00 | 0.00 | 37 | 1011.5 |
| 20260503213642 | 61 | 273 | 10.0 | 20.0 | 0.00 | 0.00 | 0.00 | 37 | 1011.6 |
| 20260503212651 | 62 | 261 | 7.0 | 17.0 | 0.00 | 0.00 | 0.00 | 37 | 1011.5 |
| 20260503211211 | 61 | 231 | 6.0 | 17.0 | 0.00 | 0.00 | 0.00 | 36 | 1011.7 |
| 20260503210642 | 62 | 265 | 7.0 | 22.0 | 0.00 | 0.00 | 0.00 | 35 | 1011.5 |
| 20260503205210 | 62 | 277 | 9.0 | 17.0 | 0.00 | 0.00 | 0.00 | 35 | 1011.7 |
| 20260503204645 | 62 | 253 | 10.0 | 17.0 | 0.00 | 0.00 | 0.00 | 35 | 1011.6 |
| 20260503203210 | 61 | 264 | 7.0 | 17.0 | 0.00 | 0.00 | 0.00 | 36 | 1011.7 |
| 20260503202211 | 61 | 241 | 5.0 | 19.0 | 0.00 | 0.00 | 0.00 | 37 | 1011.6 |
| 20260503201210 | 62 | 243 | 5.0 | 13.0 | 0.00 | 0.00 | 0.00 | 37 | 1011.9 |
| 20260503200210 | 61 | 276 | 9.0 | 16.0 | 0.00 | 0.00 | 0.00 | 37 | 1012.0 |
| 20260503195211 | 61 | 251 | 5.0 | 15.0 | 0.00 | 0.00 | 0.00 | 38 | 1012.0 |
| 20260503194657 | 60 | 261 | 9.0 | 18.0 | 0.00 | 0.00 | 0.00 | 40 | 1012.3 |
| 20260503193314 | 60 | 242 | 6.0 | 14.0 | 0.00 | 0.00 | 0.00 | 41 | 1012.9 |
| 20260503193210 | 60 | 256 | 7.0 | 17.0 | 0.00 | 0.00 | 0.00 | 42 | 1012.6 |
| 20260503192718 | 60 | 257 | 8.0 | 15.0 | 0.00 | 0.00 | 0.00 | 41 | 1013.0 |
| 20260503190653 | 59 | 264 | 14.0 | 17.0 | 0.00 | 0.00 | 0.00 | 42 | 1013.1 |
| 20260503185657 | 60 | 274 | 12.0 | 19.0 | 0.00 | 0.00 | 0.00 | 40 | 1013.2 |
| 20260503185117 | 60 | 236 | 10.0 | 14.0 | 0.00 | 0.00 | 0.00 | 41 | 1013.3 |
| 20260503183210 | 60 | 276 | 7.0 | 19.0 | 0.00 | 0.00 | 0.00 | 41 | 1013.3 |
| 20260503182210 | 60 | 279 | 11.0 | 18.0 | 0.00 | 0.00 | 0.00 | 41 | 1013.3 |
| 20260503181210 | 60 | 259 | 9.0 | 19.0 | 0.00 | 0.00 | 0.00 | 39 | 1013.3 |
| 20260503180211 | 60 | 272 | 11.0 | 20.0 | 0.00 | 0.00 | 0.00 | 38 | 1013.6 |
| 20260503175210 | 59 | 254 | 10.0 | 18.0 | 0.00 | 0.00 | 0.00 | 37 | 1013.7 |
| 20260503174210 | 59 | 261 | 9.0 | 17.0 | 0.00 | 0.00 | 0.00 | 38 | 1013.7 |
| 20260503173210 | 59 | 265 | 9.0 | 18.0 | 0.00 | 0.00 | 0.00 | 39 | 1014.1 |
| 20260503172210 | 58 | 247 | 10.0 | 17.0 | 0.00 | 0.00 | 0.00 | 40 | 1014.0 |
| 20260503171649 | 58 | 273 | 9.0 | 19.0 | 0.00 | 0.00 | 0.00 | 39 | 1014.0 |
| 20260503170210 | 58 | 253 | 9.0 | 16.0 | 0.00 | 0.00 | 0.00 | 40 | 1014.2 |
| 20260503160210 | 55 | 250 | 9.0 | 22.0 | 0.00 | 0.00 | 0.00 | 40 | 1015.0 |
| 20260503150605 | 53 | 257 | 8.0 | 13.0 | 0.00 | 0.00 | 0.00 | 41 | 1015.2 |
| 20260503150347 | 53 | 243 | 7.0 | 17.0 | 0.00 | 0.00 | 0.00 | 40 | 1015.3 |
| 20260503140210 | 51 | 248 | 9.0 | 14.0 | 0.00 | 0.00 | 0.00 | 41 | 1015.6 |
| 20260503131210 | 47 | 257 | 5.0 | 11.0 | 0.00 | 0.00 | 0.00 | 42 | 1016.2 |
| 20260503130210 | 47 | 246 | 1.0 | 16.0 | 0.00 | 0.00 | 0.00 | 46 | 1016.2 |
| 20260503110643 | 40 | 167 | 3.0 | 7.0 | 0.00 | 0.01 | 0.00 | 70 | 1015.6 |
| 20260503100210 | 38 | 226 | 2.0 | 7.0 | 0.00 | 0.01 | 0.00 | 75 | 1015.4 |
| 20260503090218 | 38 | 215 | 2.0 | 6.0 | 0.00 | 0.01 | 0.00 | 76 | 1015.8 |
| 20260503080650 | 39 | 138 | 1.0 | 6.0 | 0.00 | 0.02 | 0.00 | 75 | 1015.6 |
| 20260503072210 | 39 | 295 | 2.0 | 5.0 | 0.00 | 0.03 | 0.00 | 76 | 1015.7 |
| 20260503071210 | 39 | 17 | 1.0 | 6.0 | 0.00 | 0.04 | 0.00 | 76 | 1015.8 |
| 20260503070210 | 39 | 209 | 3.0 | 6.0 | 0.00 | 0.04 | 0.00 | 76 | 1015.5 |
| 20260503060210 | 38 | 190 | 3.0 | 5.0 | 0.00 | 0.05 | 0.00 | 75 | 1015.9 |
| 20260503054210 | 39 | 186 | 2.0 | 4.0 | 0.00 | 0.06 | 0.00 | 74 | 1015.9 |
| 20260503053648 | 39 | 209 | 2.0 | 3.0 | 0.00 | 0.06 | 0.00 | 73 | 1016.2 |
| 20260503052210 | 39 | 194 | 0.0 | 3.0 | 0.00 | 0.07 | 0.00 | 74 | 1016.2 |
| 20260503051211 | 39 | 37 | 2.0 | 3.0 | 0.00 | 0.07 | 0.00 | 72 | 1016.3 |
| 20260503050652 | 39 | 217 | 0.0 | 3.0 | 0.00 | 0.07 | 0.00 | 71 | 1016.3 |
| 20260503045209 | 40 | 176 | 0.0 | 3.0 | 0.00 | 0.07 | 0.00 | 72 | 1016.3 |
| 20260503044210 | 40 | 47 | 2.0 | 3.0 | 0.00 | 0.07 | 0.00 | 71 | 1016.3 |
| 20260503043210 | 40 | 249 | 0.0 | 6.0 | 0.00 | 0.07 | 0.00 | 71 | 1016.3 |
| 20260503042211 | 40 | 216 | 4.0 | 6.0 | 0.00 | 0.08 | 0.00 | 70 | 1016.4 |
| 20260503041210 | 41 | 234 | 4.0 | 6.0 | 0.00 | 0.08 | 0.00 | 70 | 1016.5 |
| 20260503040210 | 41 | 222 | 5.0 | 6.0 | 0.00 | 0.08 | 0.00 | 70 | 1016.5 |
| 20260503035211 | 41 | 240 | 3.0 | 7.0 | 0.00 | 0.09 | 0.08 | 70 | 1016.4 |
| 20260503034210 | 42 | 229 | 3.0 | 6.0 | 0.00 | 0.09 | 0.08 | 69 | 1016.5 |
| 20260503033650 | 42 | 233 | 4.0 | 7.0 | 0.00 | 0.09 | 0.08 | 68 | 1016.5 |
| 20260503032210 | 42 | 214 | 4.0 | 6.0 | 0.00 | 0.09 | 0.08 | 67 | 1016.4 |
| 20260503031210 | 42 | 205 | 4.0 | 6.0 | 0.00 | 0.09 | 0.08 | 67 | 1016.6 |
| 20260503030658 | 43 | 203 | 4.0 | 6.0 | 0.00 | 0.09 | 0.08 | 66 | 1016.6 |
| 20260503025210 | 43 | 223 | 4.0 | 6.0 | 0.00 | 0.09 | 0.08 | 66 | 1016.6 |
| 20260503024210 | 43 | 234 | 4.0 | 6.0 | 0.00 | 0.09 | 0.08 | 66 | 1016.8 |
| 20260503023210 | 43 | 220 | 4.0 | 6.0 | 0.00 | 0.09 | 0.08 | 66 | 1016.8 |
| 20260503022210 | 43 | 211 | 5.0 | 6.0 | 0.00 | 0.09 | 0.08 | 65 | 1016.8 |
| 20260503021226 | 43 | 227 | 4.0 | 6.0 | 0.00 | 0.09 | 0.08 | 65 | 1016.9 |
| 20260503020210 | 43 | 200 | 5.0 | 6.0 | 0.00 | 0.09 | 0.08 | 65 | 1017.0 |
| 20260503015210 | 43 | 249 | 2.0 | 5.0 | 0.00 | 0.09 | 0.08 | 63 | 1016.9 |
| 20260503014218 | 43 | 281 | 3.0 | 6.0 | 0.00 | 0.09 | 0.08 | 62 | 1016.9 |
| 20260503013211 | 44 | 271 | 2.0 | 8.0 | 0.00 | 0.09 | 0.08 | 62 | 1017.0 |
| 20260503012211 | 44 | 264 | 4.0 | 9.0 | 0.00 | 0.09 | 0.08 | 62 | 1017.0 |
| 20260503011210 | 44 | 261 | 4.0 | 9.0 | 0.00 | 0.09 | 0.08 | 61 | 1016.9 |
| 20260503010210 | 43 | 250 | 6.0 | 8.0 | 0.00 | 0.09 | 0.08 | 61 | 1016.8 |
| 20260503005210 | 43 | 257 | 6.0 | 8.0 | 0.00 | 0.09 | 0.08 | 60 | 1016.9 |
| 20260503004210 | 43 | 268 | 3.0 | 7.0 | 0.00 | 0.09 | 0.08 | 59 | 1016.8 |
| 20260503003645 | 43 | 262 | 6.0 | 8.0 | 0.00 | 0.09 | 0.08 | 58 | 1016.7 |
| 20260503002210 | 43 | 275 | 4.0 | 8.0 | 0.00 | 0.09 | 0.08 | 58 | 1016.6 |
| 20260503001647 | 43 | 286 | 4.0 | 7.0 | 0.00 | 0.09 | 0.08 | 59 | 1016.7 |
| 20260503000211 | 43 | 245 | 4.0 | 8.0 | 0.00 | 0.09 | 0.08 | 61 | 1016.7 |
| 20260502235651 | 43 | 257 | 7.0 | 8.0 | 0.00 | 0.09 | 0.08 | 61 | 1016.7 |
| 20260502234210 | 43 | 278 | 6.0 | 8.0 | 0.00 | 0.09 | 0.08 | 60 | 1016.5 |
| 20260502233651 | 43 | 271 | 4.0 | 7.0 | 0.00 | 0.09 | 0.08 | 61 | 1016.5 |
| 20260502232211 | 44 | 267 | 4.0 | 8.0 | 0.00 | 0.09 | 0.08 | 62 | 1016.7 |
| 20260502231210 | 43 | 262 | 5.0 | 10.0 | 0.00 | 0.09 | 0.08 | 62 | 1016.7 |
| 20260502230210 | 43 | 263 | 3.0 | 9.0 | 0.00 | 0.09 | 0.08 | 59 | 1016.7 |
| 20260502225211 | 43 | 288 | 6.0 | 9.0 | 0.00 | 0.09 | 0.08 | 60 | 1016.9 |
| 20260502225135 | 43 | 275 | 5.0 | 9.0 | 0.00 | 0.09 | 0.08 | 61 | 1016.8 |